Time;durP1;ratioP1;P1;durP2;ratioP2;P2;SDS_P1;SDS_P2;PMS_P1;PMS_P2;Temp;Humidity;BMP_temperature;BMP_pressure;BME280_temperature;BME280_humidity;BME280_pressure;Samples;Min_cycle;Max_cycle;Signal;HPM_P1;HPM_P2
2022/06/25 00:02:23;;;;;;;3.67;2.55;;;;;;;15.06;100.00;98848.88;5040982;28;20068;-55
2022/06/25 00:07:32;;;;;;;5.20;2.50;;;;;;;14.85;100.00;98858.97;5066109;28;20070;-55
2022/06/25 00:09:58;;;;;;;7.78;2.80;;;;;;;14.82;100.00;98863.03;5067670;28;20044;-55
2022/06/25 00:12:32;;;;;;;11.18;2.90;;;;;;;14.83;100.00;98870.06;5068950;28;20032;-55
2022/06/25 00:15:03;;;;;;;8.65;2.85;;;;;;;14.80;100.00;98867.09;5069361;28;20078;-55
2022/06/25 00:17:29;;;;;;;7.70;2.92;;;;;;;14.78;100.00;98869.31;5069360;28;20024;-55
2022/06/25 00:19:54;;;;;;;8.73;3.00;;;;;;;14.84;100.00;98865.47;5060041;28;20031;-55
2022/06/25 00:22:20;;;;;;;6.78;2.90;;;;;;;14.85;100.00;98870.59;5068811;28;20029;-55
2022/06/25 00:24:45;;;;;;;7.40;3.15;;;;;;;14.85;100.00;98873.31;5069661;28;20025;-54
2022/06/25 00:27:10;;;;;;;6.28;2.78;;;;;;;14.91;100.00;98873.28;5066653;28;20017;-54
2022/06/25 00:29:36;;;;;;;8.23;3.03;;;;;;;14.84;100.00;98874.38;5068617;28;20033;-54
2022/06/25 00:32:01;;;;;;;6.20;3.20;;;;;;;14.87;100.00;98876.50;5068893;28;20051;-54
2022/06/25 00:34:27;;;;;;;8.73;2.80;;;;;;;14.83;100.00;98888.16;5067881;28;20032;-54
2022/06/25 00:36:52;;;;;;;5.30;3.00;;;;;;;14.79;100.00;98882.50;5068992;28;20016;-54
2022/06/25 00:39:18;;;;;;;11.57;2.92;;;;;;;14.80;100.00;98888.69;5068459;28;20086;-55
2022/06/25 00:41:43;;;;;;;5.95;2.92;;;;;;;14.80;100.00;98894.91;5068554;28;20052;-55
2022/06/25 00:44:09;;;;;;;7.03;2.90;;;;;;;14.79;100.00;98893.28;5067355;28;20031;-55
2022/06/25 00:46:35;;;;;;;5.40;2.72;;;;;;;14.70;100.00;98900.34;5067969;28;20079;-55
2022/06/25 00:49:01;;;;;;;7.60;3.30;;;;;;;14.73;100.00;98904.41;5068862;28;20040;-54
2022/06/25 00:51:27;;;;;;;4.90;3.05;;;;;;;14.76;100.00;98901.94;5067932;28;20032;-55
2022/06/25 00:53:52;;;;;;;5.30;2.70;;;;;;;14.76;100.00;98901.94;5068472;28;20025;-55
2022/06/25 00:56:18;;;;;;;6.78;3.10;;;;;;;14.71;100.00;98901.16;5066382;28;20105;-55
2022/06/25 00:58:44;;;;;;;9.10;3.20;;;;;;;14.59;100.00;98901.47;5018763;28;20383;-55
2022/06/25 01:01:09;;;;;;;10.05;2.92;;;;;;;14.59;100.00;98904.19;5067796;28;20112;-54
2022/06/25 01:03:38;;;;;;;8.65;3.10;;;;;;;14.50;100.00;98905.78;5067037;28;20115;-54
2022/06/25 01:06:04;;;;;;;8.43;3.42;;;;;;;14.49;100.00;98910.38;5068252;28;20115;-55
2022/06/25 01:08:32;;;;;;;8.23;3.20;;;;;;;14.51;100.00;98912.81;5066765;28;20052;-55
2022/06/25 01:10:57;;;;;;;17.08;3.25;;;;;;;14.49;100.00;98914.97;5066385;28;20044;-55
2022/06/25 01:13:22;;;;;;;12.10;3.47;;;;;;;14.49;100.00;98909.59;5068210;28;20352;-54
2022/06/25 01:15:49;;;;;;;11.90;3.33;;;;;;;14.41;100.00;98914.47;5068354;28;20024;-54
2022/06/25 01:18:14;;;;;;;13.70;3.83;;;;;;;14.40;100.00;98920.13;5065758;28;20064;-55
2022/06/25 01:20:40;;;;;;;9.57;3.80;;;;;;;14.36;100.00;98922.56;5068717;28;20036;-54
2022/06/25 01:23:05;;;;;;;18.63;4.65;;;;;;;14.45;100.00;98920.09;5049134;28;20020;-55
2022/06/25 01:25:35;;;;;;;15.35;3.67;;;;;;;14.44;100.00;98922.00;5068144;28;20051;-54
2022/06/25 01:28:01;;;;;;;6.60;3.55;;;;;;;14.52;100.00;98927.91;5067477;28;20036;-53
2022/06/25 01:30:26;;;;;;;10.18;3.88;;;;;;;14.56;100.00;98921.72;5066521;28;20033;-55
2022/06/25 01:32:52;;;;;;;15.00;3.50;;;;;;;14.61;100.00;98926.28;5050312;28;20482;-54
2022/06/25 01:35:17;;;;;;;12.40;3.70;;;;;;;14.59;100.00;98925.75;5066655;28;20090;-55
2022/06/25 01:37:43;;;;;;;6.45;3.22;;;;;;;14.64;100.00;98929.22;5067618;28;20154;-54
2022/06/25 01:40:08;;;;;;;11.50;3.63;;;;;;;14.60;100.00;98928.19;5068148;28;20057;-53
2022/06/25 01:45:18;;;;;;;8.05;3.60;;;;;;;14.62;100.00;98925.19;5043486;28;20384;-54
2022/06/25 01:47:43;;;;;;;6.70;3.72;;;;;;;14.63;100.00;98937.63;5066687;28;20021;-52
2022/06/25 01:50:09;;;;;;;11.00;3.42;;;;;;;14.65;100.00;98928.16;5064569;28;20028;-53
2022/06/25 01:52:34;;;;;;;5.10;3.33;;;;;;;14.64;100.00;98926.53;5067569;28;20478;-53
2022/06/25 01:55:00;;;;;;;7.32;3.63;;;;;;;14.68;100.00;98929.50;5066985;28;20358;-54
2022/06/25 01:57:25;;;;;;;11.07;3.42;;;;;;;14.65;100.00;98927.34;5066761;28;20067;-55
2022/06/25 01:59:52;;;;;;;10.95;3.60;;;;;;;14.67;100.00;98933.25;5068879;28;20043;-55
2022/06/25 02:02:17;;;;;;;13.18;3.88;;;;;;;14.69;100.00;98933.81;5067264;28;20060;-53
2022/06/25 02:04:43;;;;;;;6.45;3.28;;;;;;;14.67;100.00;98944.06;5067396;28;20103;-54
2022/06/25 02:07:08;;;;;;;14.32;3.60;;;;;;;14.60;100.00;98944.38;5067918;28;20032;-54
2022/06/25 02:09:33;;;;;;;10.25;3.97;;;;;;;14.65;100.00;98947.03;5067068;28;20441;-55
2022/06/25 02:11:59;;;;;;;8.02;3.55;;;;;;;14.64;100.00;98950.00;5042669;28;20025;-54
2022/06/25 02:14:26;;;;;;;9.35;3.80;;;;;;;14.72;100.00;98948.63;5066139;28;20421;-56
2022/06/25 02:16:52;;;;;;;5.70;3.47;;;;;;;14.66;100.00;98953.25;5067833;28;20037;-54
2022/06/25 02:19:18;;;;;;;8.88;4.00;;;;;;;14.67;100.00;98954.84;5066786;28;20099;-53
2022/06/25 02:21:43;;;;;;;7.40;4.18;;;;;;;14.64;100.00;98952.72;5056207;28;20486;-54
2022/06/25 02:24:09;;;;;;;7.90;3.75;;;;;;;14.65;100.00;98949.75;5066822;28;20020;-54
2022/06/25 02:26:34;;;;;;;8.50;3.80;;;;;;;14.63;100.00;98953.81;5067969;28;20024;-55
2022/06/25 02:28:59;;;;;;;10.77;3.67;;;;;;;14.60;100.00;98948.94;5066339;28;20044;-56
2022/06/25 02:31:25;;;;;;;9.23;4.35;;;;;;;14.59;100.00;98950.03;5068268;28;20474;-55
2022/06/25 02:33:50;;;;;;;10.10;4.57;;;;;;;14.54;100.00;98950.06;5049211;28;20506;-55
2022/06/25 02:36:19;;;;;;;8.88;4.15;;;;;;;14.49;100.00;98944.66;5066452;28;20032;-55
2022/06/25 02:38:51;;;;;;;8.75;4.03;;;;;;;14.43;100.00;98950.06;5066867;28;20028;-56
2022/06/25 02:41:16;;;;;;;12.55;4.22;;;;;;;14.45;100.00;98953.28;5066237;28;20044;-55
2022/06/25 02:43:41;;;;;;;6.13;3.97;;;;;;;14.50;100.00;98951.63;5067011;28;20475;-55
2022/06/25 02:46:07;;;;;;;7.82;4.20;;;;;;;14.54;100.00;98956.25;5066726;28;20021;-54
2022/06/25 02:48:33;;;;;;;14.30;4.88;;;;;;;14.56;100.00;98955.97;5067293;28;20028;-55
2022/06/25 02:50:58;;;;;;;10.50;4.88;;;;;;;14.58;100.00;98953.81;5068467;28;20032;-55
2022/06/25 02:53:24;;;;;;;8.00;4.60;;;;;;;14.59;100.00;98956.22;5053832;28;20379;-55
2022/06/25 03:01:17;;;;;;;11.38;5.13;;;;;;;14.63;100.00;98969.97;5070350;28;20448;-55
2022/06/25 03:03:43;;;;;;;8.95;5.18;;;;;;;14.62;100.00;98968.34;5069611;28;20028;-56
2022/06/25 03:06:08;;;;;;;10.90;5.35;;;;;;;14.57;100.00;98963.78;5071822;28;20507;-53
2022/06/25 03:08:33;;;;;;;13.43;5.72;;;;;;;14.55;100.00;98957.03;5070059;28;20078;-55
2022/06/25 03:10:59;;;;;;;16.90;5.63;;;;;;;14.55;100.00;98967.84;5069920;28;20033;-55
2022/06/25 03:13:24;;;;;;;12.32;4.80;;;;;;;14.52;100.00;98957.56;5069701;28;20086;-55
2022/06/25 03:15:50;;;;;;;13.35;5.13;;;;;;;14.56;100.00;98959.47;5070776;28;20032;-56
2022/06/25 03:18:15;;;;;;;12.73;5.35;;;;;;;14.65;100.00;98962.41;5070111;28;20497;-55
2022/06/25 03:20:40;;;;;;;9.57;5.00;;;;;;;14.66;100.00;98964.84;5069581;28;20036;-54
2022/06/25 03:23:06;;;;;;;13.98;5.40;;;;;;;14.65;100.00;98973.19;5070528;28;20036;-56
2022/06/25 03:25:31;;;;;;;12.27;5.40;;;;;;;14.67;100.00;98971.03;5039740;28;20063;-53
2022/06/25 03:27:57;;;;;;;9.75;5.00;;;;;;;14.59;100.00;98974.31;5054928;28;20412;-55
2022/06/25 03:30:23;;;;;;;15.98;4.72;;;;;;;14.64;100.00;98979.69;5070022;28;20016;-56
2022/06/25 03:32:48;;;;;;;9.80;5.20;;;;;;;14.59;100.00;98979.69;5069265;28;20628;-55
2022/06/25 03:35:14;;;;;;;10.55;4.50;;;;;;;14.66;100.00;98981.00;5069862;28;20021;-55
2022/06/25 03:37:39;;;;;;;12.55;4.57;;;;;;;14.99;100.00;98989.50;5068998;28;20029;-53
2022/06/25 03:40:05;;;;;;;6.57;3.83;;;;;;;15.49;100.00;98986.81;5070756;28;20048;-56
2022/06/25 03:42:30;;;;;;;13.00;4.00;;;;;;;15.62;98.92;98988.88;5070272;28;20067;-55
2022/06/25 03:44:56;;;;;;;8.07;3.45;;;;;;;15.81;98.59;98991.75;5070568;28;20025;-56
2022/06/25 03:47:21;;;;;;;9.10;3.92;;;;;;;15.98;95.50;98996.75;5069272;28;20032;-56
2022/06/25 03:49:47;;;;;;;6.75;3.40;;;;;;;15.95;95.93;99000.00;5068577;28;20515;-55
2022/06/25 03:52:12;;;;;;;14.55;3.40;;;;;;;17.10;89.76;99012.88;5070384;28;20024;-53
2022/06/25 03:54:37;;;;;;;13.07;3.17;;;;;;;17.39;87.90;99010.84;5069954;28;20020;-53
2022/06/25 03:57:03;;;;;;;10.20;3.25;;;;;;;16.43;90.63;99004.72;5068431;28;20386;-53
2022/06/25 03:59:29;;;;;;;11.25;3.72;;;;;;;16.38;92.02;99002.84;5066306;28;20017;-55
2022/06/25 04:01:55;;;;;;;8.55;3.10;;;;;;;17.12;88.62;99007.97;5050296;28;20052;-55
2022/06/25 04:04:20;;;;;;;13.00;2.90;;;;;;;18.11;83.30;98999.72;5069063;28;20024;-55
2022/06/25 04:06:46;;;;;;;9.55;2.90;;;;;;;18.22;82.32;98994.97;5069256;28;20023;-54
2022/06/25 04:09:11;;;;;;;11.38;2.80;;;;;;;19.03;79.46;98986.34;5069321;28;20021;-56
2022/06/25 04:11:37;;;;;;;7.97;2.60;;;;;;;19.42;76.16;98995.00;5068908;28;20064;-55
2022/06/25 04:14:03;;;;;;;4.78;2.28;;;;;;;20.12;73.11;99001.81;5051474;28;20383;-56
2022/06/25 04:16:28;;;;;;;8.88;2.25;;;;;;;19.74;75.23;98997.53;5069233;28;20514;-55
2022/06/25 04:18:56;;;;;;;9.98;2.63;;;;;;;20.46;71.89;99004.72;5068862;28;20028;-56
2022/06/25 04:21:22;;;;;;;13.82;2.70;;;;;;;20.60;71.19;98998.41;5068636;28;20055;-56
2022/06/25 04:23:47;;;;;;;8.98;2.47;;;;;;;21.53;67.89;99000.06;5068827;28;20472;-56
2022/06/25 04:26:13;;;;;;;9.27;2.25;;;;;;;21.73;67.80;99007.59;5041911;28;20024;-56
2022/06/25 04:31:22;;;;;;;6.05;2.30;;;;;;;21.35;66.71;99001.16;5069588;28;20551;-55
2022/06/25 04:33:48;;;;;;;9.65;2.70;;;;;;;20.59;71.83;99002.22;5067301;28;20016;-54
2022/06/25 04:36:13;;;;;;;8.77;2.47;;;;;;;20.61;72.17;99005.44;5068358;28;20462;-54
2022/06/25 04:38:39;;;;;;;9.63;2.30;;;;;;;22.04;65.68;99012.06;5068692;28;20024;-55
2022/06/25 04:41:04;;;;;;;11.82;2.40;;;;;;;19.02;76.38;99009.22;5060551;28;20483;-54
2022/06/25 04:43:30;;;;;;;7.38;2.50;;;;;;;18.81;77.59;99010.72;5068259;28;20044;-54
2022/06/25 04:45:55;;;;;;;9.23;2.70;;;;;;;20.15;72.39;99021.03;5069146;28;20016;-54
2022/06/25 04:48:20;;;;;;;6.40;2.33;;;;;;;21.41;68.76;99021.72;5068066;28;20025;-53
2022/06/25 04:50:47;;;;;;;9.27;2.40;;;;;;;20.85;68.79;99019.47;5069748;28;20025;-53
2022/06/25 04:53:12;;;;;;;6.80;2.33;;;;;;;19.63;73.87;99028.78;5068477;28;20021;-55
2022/06/25 04:55:38;;;;;;;5.88;2.58;;;;;;;18.97;80.09;99028.31;5053589;28;20103;-54
2022/06/25 04:58:03;;;;;;;9.35;2.50;;;;;;;19.13;77.07;99017.94;5068196;28;20039;-54
2022/06/25 05:00:29;;;;;;;14.30;2.97;;;;;;;18.58;78.60;99021.44;5068073;28;20052;-55
2022/06/25 05:02:54;;;;;;;8.60;2.90;;;;;;;20.09;74.88;99013.31;5066221;28;20033;-55
2022/06/25 05:05:19;;;;;;;9.13;2.50;;;;;;;21.12;69.71;99020.38;5068536;28;20283;-55
2022/06/25 05:07:45;;;;;;;10.38;2.75;;;;;;;20.38;72.88;99016.34;5039689;28;20115;-55
2022/06/25 05:10:10;;;;;;;5.63;2.40;;;;;;;20.08;73.76;99026.13;5067924;28;20060;-55
2022/06/25 05:15:21;;;;;;;5.45;2.60;;;;;;;21.25;69.57;99040.41;5066213;28;20036;-55
2022/06/25 05:17:47;;;;;;;9.73;2.60;;;;;;;22.27;65.37;99037.25;5066263;28;20530;-55
2022/06/25 05:20:12;;;;;;;7.72;2.30;;;;;;;21.67;66.67;99044.34;5066589;28;20024;-55
2022/06/25 05:22:38;;;;;;;8.18;2.50;;;;;;;22.06;66.93;99042.56;5067746;28;20387;-54
2022/06/25 05:25:03;;;;;;;7.28;2.60;;;;;;;22.36;65.28;99034.50;5056092;28;20027;-54
2022/06/25 05:27:29;;;;;;;5.85;2.63;;;;;;;22.91;60.99;99050.03;5068375;28;20162;-54
2022/06/25 05:29:57;;;;;;;8.45;2.70;;;;;;;21.17;68.82;99050.19;5068292;28;20040;-55
2022/06/25 05:32:23;;;;;;;12.68;2.80;;;;;;;21.82;67.24;99053.19;5066311;28;20024;-55
2022/06/25 05:34:48;;;;;;;5.50;2.40;;;;;;;24.08;60.40;99052.19;5066830;28;20032;-55
2022/06/25 05:37:14;;;;;;;6.65;2.65;;;;;;;21.19;68.15;99058.84;5068212;28;20023;-54
2022/06/25 05:39:40;;;;;;;7.13;2.53;;;;;;;22.04;64.34;99066.66;5049481;28;20024;-55
2022/06/25 05:42:06;;;;;;;7.38;2.72;;;;;;;23.57;61.44;99062.41;5067888;28;20016;-55
2022/06/25 05:44:31;;;;;;;10.52;2.38;;;;;;;25.00;57.38;99070.22;5067277;28;20426;-55
2022/06/25 05:46:57;;;;;;;10.02;2.50;;;;;;;22.21;64.00;99068.56;5041162;28;20032;-56
2022/06/25 05:49:22;;;;;;;6.28;2.83;;;;;;;20.70;71.35;99074.38;5064807;28;20392;-55
2022/06/25 05:51:47;;;;;;;8.48;2.90;;;;;;;19.26;76.23;99073.34;5068149;28;20033;-54
2022/06/25 05:54:13;;;;;;;8.32;3.00;;;;;;;20.80;74.05;99074.09;5066497;28;20029;-55
2022/06/25 05:56:38;;;;;;;8.73;3.08;;;;;;;19.05;75.98;99067.53;5067088;28;20021;-55
2022/06/25 05:59:04;;;;;;;7.97;2.97;;;;;;;22.56;64.40;99066.56;5067556;28;20035;-55
2022/06/25 06:01:30;;;;;;;5.30;2.65;;;;;;;22.84;63.27;99077.09;5063277;28;20020;-55
2022/06/25 06:03:55;;;;;;;6.43;2.85;;;;;;;23.66;61.54;99072.16;5048767;28;20490;-55
2022/06/25 06:06:21;;;;;;;7.35;2.80;;;;;;;23.52;62.40;99079.81;5067197;28;20059;-55
2022/06/25 06:08:46;;;;;;;7.97;2.88;;;;;;;25.02;57.40;99081.63;5067134;28;20028;-54
2022/06/25 06:11:11;;;;;;;6.03;2.40;;;;;;;23.23;60.34;99078.69;5067611;28;20033;-55
2022/06/25 06:13:37;;;;;;;5.95;2.72;;;;;;;22.93;64.08;99080.56;5066472;28;20029;-55
2022/06/25 06:16:03;;;;;;;6.25;2.65;;;;;;;24.10;59.10;99077.28;5066775;28;20055;-55
2022/06/25 06:18:28;;;;;;;8.80;2.60;;;;;;;24.66;59.10;99088.69;5066621;28;20059;-55
2022/06/25 06:20:53;;;;;;;10.05;3.28;;;;;;;22.21;63.63;99086.88;5068390;28;20036;-55
2022/06/25 06:23:19;;;;;;;6.93;2.97;;;;;;;22.30;66.03;99090.41;5066508;28;20024;-55
2022/06/25 06:25:44;;;;;;;6.43;3.00;;;;;;;22.69;64.05;99086.63;5053145;28;20032;-54
2022/06/25 06:28:10;;;;;;;5.68;2.45;;;;;;;26.67;54.00;99089.25;5071652;28;20028;-56
2022/06/25 06:30:35;;;;;;;6.38;2.70;;;;;;;27.42;50.75;99102.09;5053359;28;20028;-56
2022/06/25 06:33:01;;;;;;;7.20;2.70;;;;;;;27.78;50.46;99102.09;5069612;28;20028;-55
2022/06/25 06:35:26;;;;;;;8.05;2.70;;;;;;;22.78;63.04;99103.78;5071282;28;20029;-56
2022/06/25 06:37:51;;;;;;;6.57;3.03;;;;;;;22.93;63.77;99107.91;5051205;28;20029;-55
2022/06/25 06:40:17;;;;;;;12.32;3.20;;;;;;;23.03;64.37;99109.50;5069763;28;20506;-54
2022/06/25 06:42:42;;;;;;;7.50;3.33;;;;;;;24.98;57.60;99102.66;5069551;28;20040;-56
2022/06/25 06:45:08;;;;;;;6.85;3.22;;;;;;;23.05;62.80;99101.78;5071193;28;20027;-55
2022/06/25 06:47:34;;;;;;;5.10;3.20;;;;;;;23.07;63.86;99102.25;5069092;28;20034;-55
2022/06/25 06:49:59;;;;;;;7.53;3.22;;;;;;;24.55;58.28;99098.47;5070986;28;20032;-56
2022/06/25 06:52:26;;;;;;;6.28;3.00;;;;;;;21.96;65.43;99109.16;5043018;28;20365;-54
2022/06/25 06:54:52;;;;;;;4.97;2.58;;;;;;;23.84;62.57;99099.44;5066482;28;20049;-55
2022/06/25 06:57:17;;;;;;;5.25;2.67;;;;;;;23.20;62.38;99094.97;5069361;28;20016;-55
2022/06/25 06:59:43;;;;;;;8.27;2.72;;;;;;;22.15;68.30;99095.22;5069448;28;20502;-55
2022/06/25 07:02:08;;;;;;;7.90;2.60;;;;;;;26.08;54.67;99095.47;5069969;28;20586;-56
2022/06/25 07:04:33;;;;;;;5.45;2.33;;;;;;;25.49;58.31;99092.16;5068079;28;20036;-55
2022/06/25 07:06:59;;;;;;;5.50;2.50;;;;;;;23.31;61.43;99079.78;5055617;28;20025;-55
2022/06/25 07:09:24;;;;;;;6.13;2.50;;;;;;;26.70;53.57;99090.50;5070089;28;20033;-56
2022/06/25 07:11:50;;;;;;;6.07;2.85;;;;;;;24.20;57.38;99087.81;5069455;28;20052;-56
2022/06/25 07:14:15;;;;;;;6.53;2.60;;;;;;;25.50;56.12;99091.00;5069996;28;20017;-56
2022/06/25 07:16:41;;;;;;;5.55;2.33;;;;;;;27.53;50.59;99091.31;5069138;28;20082;-56
2022/06/25 07:19:06;;;;;;;5.95;2.47;;;;;;;23.87;57.53;99101.50;5070113;28;20107;-56
2022/06/25 07:21:32;;;;;;;5.85;2.42;;;;;;;26.36;51.77;99101.75;5069780;28;20032;-55
2022/06/25 07:23:57;;;;;;;8.80;2.60;;;;;;;23.87;58.60;99091.34;5070040;28;20029;-56
2022/06/25 07:26:23;;;;;;;5.72;2.92;;;;;;;25.99;52.85;99096.41;5069709;28;20032;-55
2022/06/25 07:28:48;;;;;;;6.40;2.97;;;;;;;25.85;54.35;99096.00;5069716;28;20024;-55
2022/06/25 07:31:14;;;;;;;6.47;2.40;;;;;;;23.46;61.57;99092.91;5046296;28;20036;-55
2022/06/25 07:33:39;;;;;;;8.10;2.97;;;;;;;23.58;61.68;99094.09;5067972;28;20040;-55
2022/06/25 07:36:05;;;;;;;9.38;2.50;;;;;;;24.65;57.02;99098.03;5068304;28;20032;-53
2022/06/25 07:38:31;;;;;;;6.45;2.45;;;;;;;25.82;55.34;99093.91;5069111;28;20341;-55
2022/06/25 07:40:56;;;;;;;6.97;2.55;;;;;;;24.82;55.69;99096.25;5069916;28;20032;-55
2022/06/25 07:43:22;;;;;;;6.07;2.70;;;;;;;24.77;55.56;99093.72;5068703;28;20017;-55
2022/06/25 07:45:49;;;;;;;8.00;2.47;;;;;;;26.07;53.00;99082.91;5070015;28;20032;-55
2022/06/25 07:48:14;;;;;;;7.57;2.40;;;;;;;26.01;51.13;99085.09;5067229;28;20096;-56
2022/06/25 07:53:23;;;;;;;6.22;2.53;;;;;;;26.78;51.33;99090.31;5068178;28;20046;-55
2022/06/25 07:55:49;;;;;;;5.90;2.50;;;;;;;27.19;50.86;99079.97;5050352;28;20081;-55
2022/06/25 07:58:14;;;;;;;11.32;2.35;;;;;;;29.67;44.00;99082.66;5069206;28;20110;-56
2022/06/25 08:00:40;;;;;;;5.93;2.20;;;;;;;24.02;56.57;99083.66;5052416;28;20032;-56
2022/06/25 08:03:05;;;;;;;4.32;2.35;;;;;;;24.47;57.02;99078.25;5064200;28;20467;-56
2022/06/25 08:05:32;;;;;;;8.10;3.00;;;;;;;26.11;52.90;99090.09;5045225;28;20037;-55
2022/06/25 08:07:58;;;;;;;11.00;2.40;;;;;;;27.45;48.31;99084.88;5069519;28;20530;-56
2022/06/25 08:10:23;;;;;;;6.72;2.20;;;;;;;27.68;46.88;99087.75;5068657;28;20044;-55
2022/06/25 08:12:48;;;;;;;6.10;2.20;;;;;;;29.11;45.10;99086.16;5068841;28;20059;-56
2022/06/25 08:15:14;;;;;;;6.80;2.10;;;;;;;27.27;48.88;99087.22;5051250;28;20072;-56
2022/06/25 08:17:40;;;;;;;7.38;2.47;;;;;;;27.78;46.62;99080.84;5068401;28;20188;-56
2022/06/25 08:20:06;;;;;;;7.25;2.50;;;;;;;26.82;49.76;99085.69;5036306;28;20120;-55
2022/06/25 08:22:31;;;;;;;6.32;2.15;;;;;;;24.40;55.19;99088.13;5067587;28;20052;-54
2022/06/25 08:24:57;;;;;;;6.07;2.42;;;;;;;25.26;53.36;99086.38;5068303;28;20068;-55
2022/06/25 08:27:22;;;;;;;6.97;2.60;;;;;;;24.15;54.72;99090.78;5067545;28;20416;-55
2022/06/25 08:29:48;;;;;;;5.82;2.22;;;;;;;24.64;55.43;99093.72;5066686;28;20224;-55
2022/06/25 08:32:13;;;;;;;9.10;2.40;;;;;;;23.15;60.43;99095.16;5047493;28;20023;-55
2022/06/25 08:34:38;;;;;;;4.25;2.38;;;;;;;22.05;62.42;99087.34;5050624;28;20028;-54
2022/06/25 08:37:05;;;;;;;4.70;2.30;;;;;;;23.59;59.69;99085.56;5067042;28;20375;-55
2022/06/25 08:39:31;;;;;;;5.50;2.40;;;;;;;24.42;53.73;99092.13;5065204;28;20086;-54
2022/06/25 08:41:59;;;;;;;5.53;2.20;;;;;;;25.37;53.03;99094.91;5066765;28;20067;-55
2022/06/25 08:44:24;;;;;;;5.93;2.30;;;;;;;24.60;55.39;99084.56;5034822;28;20117;-54
2022/06/25 08:46:50;;;;;;;7.30;2.40;;;;;;;23.73;57.14;99087.25;5063161;28;20479;-54
2022/06/25 08:49:16;;;;;;;6.18;2.30;;;;;;;24.27;57.08;99082.59;5028564;28;20064;-54
2022/06/25 08:51:41;;;;;;;5.85;2.30;;;;;;;25.05;53.83;99082.91;5068311;28;20032;-54
2022/06/25 08:54:07;;;;;;;5.35;2.10;;;;;;;24.48;57.20;99084.53;5035839;28;20029;-54
2022/06/25 08:56:33;;;;;;;4.93;2.10;;;;;;;22.70;58.00;99090.94;5065461;28;20042;-54
2022/06/25 08:58:58;;;;;;;4.95;2.30;;;;;;;21.37;64.27;99084.22;5061235;28;20486;-55
2022/06/25 09:01:24;;;;;;;7.57;2.47;;;;;;;22.83;61.03;99075.47;5048881;28;20017;-55
2022/06/25 09:03:49;;;;;;;4.35;2.10;;;;;;;23.78;58.58;99079.66;5026525;28;20410;-56
2022/06/25 09:06:18;;;;;;;7.25;2.30;;;;;;;26.18;50.67;99083.97;5066654;28;20021;-54
2022/06/25 09:08:44;;;;;;;4.78;2.08;;;;;;;28.06;47.07;99077.94;5066512;28;20024;-56
2022/06/25 09:11:09;;;;;;;7.97;2.60;;;;;;;24.59;51.28;99080.22;5048775;28;20075;-56
2022/06/25 09:13:34;;;;;;;5.43;2.30;;;;;;;24.90;52.55;99074.19;5067469;28;20066;-56
2022/06/25 09:16:00;;;;;;;6.18;2.08;;;;;;;27.18;46.93;99061.84;5054077;28;20020;-56
2022/06/25 09:18:25;;;;;;;4.78;1.95;;;;;;;26.09;48.33;99061.38;5066446;28;20021;-56
2022/06/25 09:21:03;;;;;;;5.22;2.30;;;;;;;27.23;48.82;99058.84;5066830;28;20124;-56
2022/06/25 09:23:33;;;;;;;6.05;2.47;;;;;;;25.65;51.43;99055.78;5067855;28;20024;-55
2022/06/25 09:26:09;;;;;;;9.35;2.50;;;;;;;27.72;47.16;99058.31;5059973;28;20036;-56
2022/06/25 09:28:35;;;;;;;6.03;1.80;;;;;;;27.62;45.82;99063.63;5062362;28;20029;-56
2022/06/25 09:31:02;;;;;;;5.03;2.05;;;;;;;26.94;46.76;99059.28;5059208;28;20024;-56
2022/06/25 09:33:28;;;;;;;5.63;2.20;;;;;;;26.87;46.81;99060.69;5063114;28;20549;-56
2022/06/25 09:35:55;;;;;;;5.75;2.10;;;;;;;25.03;50.93;99058.56;5046669;28;20119;-55
2022/06/25 09:38:21;;;;;;;5.63;1.95;;;;;;;26.87;47.40;99057.94;5037397;28;20060;-54
2022/06/25 09:40:50;;;;;;;5.53;2.00;;;;;;;27.97;44.70;99052.56;5065334;28;20044;-55
2022/06/25 09:43:20;;;;;;;5.40;1.95;;;;;;;26.08;48.12;99051.53;5063260;28;20031;-54
2022/06/25 09:45:47;;;;;;;5.72;2.00;;;;;;;28.98;43.49;99058.75;5065569;28;20052;-55
2022/06/25 09:48:29;;;;;;;5.22;2.10;;;;;;;28.29;42.59;99049.63;5064991;28;20728;-56
2022/06/25 09:51:15;;;;;;;4.65;2.10;;;;;;;27.68;45.62;99054.72;5065517;28;20039;-56
2022/06/25 09:53:50;;;;;;;4.40;1.85;;;;;;;28.31;42.67;99050.06;5063250;28;20101;-56
2022/06/25 09:56:21;;;;;;;4.90;2.13;;;;;;;28.90;43.03;99045.19;5065657;28;20129;-56
2022/06/25 09:58:47;;;;;;;4.93;2.20;;;;;;;28.88;43.15;99051.09;5065498;28;20067;-55
2022/06/25 10:01:15;;;;;;;6.88;2.00;;;;;;;29.49;42.95;99048.47;5063642;28;20016;-57
2022/06/25 10:03:40;;;;;;;4.72;1.88;;;;;;;30.37;41.60;99047.97;5068484;28;20047;-56
2022/06/25 10:06:06;;;;;;;6.93;1.95;;;;;;;29.89;39.95;99045.84;5055540;28;20487;-56
2022/06/25 10:08:31;;;;;;;5.40;2.13;;;;;;;28.89;42.48;99049.91;5067507;28;20482;-55
2022/06/25 10:10:57;;;;;;;5.90;2.35;;;;;;;26.66;45.13;99049.19;5039443;28;20041;-56
2022/06/25 10:13:23;;;;;;;4.53;2.10;;;;;;;25.52;48.98;99039.34;5036277;28;20083;-56
2022/06/25 10:15:52;;;;;;;5.53;2.30;;;;;;;23.17;55.26;99035.50;5067413;28;20033;-55
2022/06/25 10:18:17;;;;;;;8.98;2.25;;;;;;;25.34;51.31;99035.28;5043066;28;20052;-55
2022/06/25 10:20:43;;;;;;;7.72;2.58;;;;;;;25.80;48.50;99030.34;5068717;28;20031;-56
2022/06/25 10:23:09;;;;;;;6.72;2.30;;;;;;;24.58;55.34;99032.03;5066102;28;20025;-56
2022/06/25 10:25:35;;;;;;;5.18;2.03;;;;;;;27.07;48.01;99033.28;5035069;28;20058;-56
2022/06/25 10:28:05;;;;;;;7.35;2.10;;;;;;;26.76;48.24;99028.59;5066541;28;20466;-56
2022/06/25 10:30:36;;;;;;;11.13;2.95;;;;;;;25.38;50.22;99036.16;5068114;28;20042;-54
2022/06/25 10:33:02;;;;;;;6.50;2.45;;;;;;;25.65;51.16;99025.59;5062601;28;20035;-55
2022/06/25 10:35:35;;;;;;;4.35;2.10;;;;;;;26.43;46.81;99022.28;5048168;28;20020;-55
2022/06/25 10:38:10;;;;;;;4.88;2.15;;;;;;;25.73;49.56;99017.19;5069113;28;20036;-55
2022/06/25 10:40:55;;;;;;;4.80;2.50;;;;;;;25.44;49.97;99021.06;5053916;28;20029;-56
2022/06/25 10:43:40;;;;;;;5.72;2.40;;;;;;;25.45;50.44;99016.38;5069375;28;20112;-55
2022/06/25 10:46:36;;;;;;;6.20;3.10;;;;;;;25.96;49.42;99017.50;5052076;28;20046;-57
2022/06/25 10:49:17;;;;;;;5.10;2.38;;;;;;;25.35;50.17;99015.69;5046314;28;20067;-55
2022/06/25 10:51:50;;;;;;;5.63;2.25;;;;;;;24.76;52.23;99013.44;5066015;28;20498;-55
2022/06/25 10:54:15;;;;;;;4.63;2.60;;;;;;;24.64;51.95;99022.47;5070173;28;20036;-55
2022/06/25 10:56:45;;;;;;;5.70;2.45;;;;;;;24.21;53.50;99012.78;5069870;28;20036;-54
2022/06/25 10:59:41;;;;;;;7.57;2.67;;;;;;;23.93;53.92;99011.75;5068845;28;20039;-54
2022/06/25 11:02:08;;;;;;;7.47;2.40;;;;;;;24.81;52.69;99005.00;5066371;28;20036;-55
2022/06/25 11:04:33;;;;;;;6.28;2.40;;;;;;;24.93;49.68;99013.19;5069577;28;20058;-55
2022/06/25 11:07:08;;;;;;;5.22;2.55;;;;;;;25.10;50.63;99008.63;5069230;28;20456;-56
2022/06/25 11:09:34;;;;;;;8.68;2.47;;;;;;;24.94;51.07;99011.28;5070104;28;20025;-55
2022/06/25 11:11:59;;;;;;;5.22;2.50;;;;;;;23.75;54.69;99011.13;5068142;28;20020;-55
2022/06/25 11:14:25;;;;;;;4.90;2.33;;;;;;;23.83;54.30;99002.81;5051149;28;20413;-55
2022/06/25 11:16:51;;;;;;;5.35;2.35;;;;;;;25.09;51.74;99005.09;5067002;28;20505;-56
2022/06/25 11:19:16;;;;;;;5.25;2.25;;;;;;;25.84;49.65;99001.03;5064519;28;20024;-54
2022/06/25 11:21:43;;;;;;;6.82;2.78;;;;;;;24.11;52.37;98996.75;5068915;28;20021;-55
2022/06/25 11:24:10;;;;;;;9.45;2.50;;;;;;;24.83;53.01;98994.47;5069364;28;20024;-53
2022/06/25 11:29:25;;;;;;;6.50;2.75;;;;;;;24.81;52.08;98995.97;5064917;28;20048;-54
2022/06/25 11:31:51;;;;;;;5.78;2.70;;;;;;;24.82;52.90;98997.59;5040518;28;20492;-55
2022/06/25 11:34:19;;;;;;;5.38;2.92;;;;;;;24.60;52.38;98985.91;5067569;28;20543;-54
2022/06/25 11:36:54;;;;;;;6.85;2.97;;;;;;;24.26;53.69;98989.84;5050427;28;20522;-54
2022/06/25 11:39:19;;;;;;;11.00;3.25;;;;;;;24.29;52.62;98987.22;5069225;28;20020;-55
2022/06/25 11:41:48;;;;;;;5.85;3.03;;;;;;;23.76;53.23;98986.16;5067389;28;20055;-53
2022/06/25 11:44:14;;;;;;;7.97;3.22;;;;;;;25.12;50.96;98990.69;5064734;28;20028;-54
2022/06/25 11:46:39;;;;;;;7.07;3.10;;;;;;;24.96;51.86;98987.03;5067959;28;20028;-55
2022/06/25 11:49:05;;;;;;;7.78;3.30;;;;;;;25.37;51.89;98985.19;5068425;28;20037;-54